Time;durP1;ratioP1;P1;durP2;ratioP2;P2;SDS_P1;SDS_P2;PMS_P1;PMS_P2;Temp;Humidity;BMP_temperature;BMP_pressure;BME280_temperature;BME280_humidity;BME280_pressure;Samples;Min_cycle;Max_cycle;Signal;HPM_P1;HPM_P2
2022/04/24 00:01:30;;;;;;;1.27;0.60;;;;;;;;;;4922291;29;20122;-71
2022/04/24 00:03:56;;;;;;;2.42;0.60;;;;;;;;;;4920871;29;20059;-71
2022/04/24 00:06:23;;;;;;;1.23;0.57;;;;;;;;;;4925305;29;20059;-70
2022/04/24 00:08:49;;;;;;;4.65;0.95;;;;;;;;;;4923722;29;20577;-70
2022/04/24 00:11:17;;;;;;;2.22;0.65;;;;;;;;;;4923712;29;20512;-68
2022/04/24 00:13:43;;;;;;;1.83;0.77;;;;;;;;;;4923576;29;20059;-70
2022/04/24 00:16:10;;;;;;;1.52;0.65;;;;;;;;;;4922764;29;20086;-69
2022/04/24 00:18:38;;;;;;;1.40;0.70;;;;;;;;;;4925167;29;20044;-68
2022/04/24 00:21:05;;;;;;;0.75;0.52;;;;;;;;;;4920277;29;20059;-69
2022/04/24 00:23:31;;;;;;;1.90;0.88;;;;;;;;;;4922855;29;20060;-70
2022/04/24 00:25:58;;;;;;;0.95;0.55;;;;;;;;;;4924001;29;20732;-69
2022/04/24 00:28:24;;;;;;;1.88;0.60;;;;;;;;;;4926092;29;20047;-67
2022/04/24 00:30:50;;;;;;;1.17;0.52;;;;;;;;;;4921668;29;20623;-69
2022/04/24 00:33:16;;;;;;;1.27;0.55;;;;;;;;;;4923679;29;20115;-71
2022/04/24 00:35:42;;;;;;;3.17;0.60;;;;;;;;;;4923653;29;20103;-69
2022/04/24 00:38:08;;;;;;;2.60;0.70;;;;;;;;;;4923802;29;20280;-70
2022/04/24 00:40:35;;;;;;;4.90;0.90;;;;;;;;;;4922281;29;20304;-69
2022/04/24 00:43:01;;;;;;;1.27;0.80;;;;;;;;;;4922692;29;20442;-67
2022/04/24 00:45:26;;;;;;;2.90;0.88;;;;;;;;;;4923577;29;20051;-68
2022/04/24 00:47:53;;;;;;;3.83;0.80;;;;;;;;;;4922703;29;20043;-69
2022/04/24 00:50:19;;;;;;;1.20;0.70;;;;;;;;;;4922442;29;20353;-68
2022/04/24 00:52:46;;;;;;;2.33;0.63;;;;;;;;;;4926246;29;20459;-68
2022/04/24 00:55:12;;;;;;;3.35;0.70;;;;;;;;;;4923057;29;20126;-67
2022/04/24 00:57:41;;;;;;;0.80;0.60;;;;;;;;;;4925876;29;20458;-67
2022/04/24 01:00:08;;;;;;;3.58;0.80;;;;;;;;;;4923784;29;20074;-66
2022/04/24 01:02:34;;;;;;;2.03;0.70;;;;;;;;;;4923806;29;20067;-67
2022/04/24 01:05:01;;;;;;;3.28;0.60;;;;;;;;;;4923700;29;20051;-69
2022/04/24 01:07:27;;;;;;;2.45;0.68;;;;;;;;;;4923614;29;20067;-67
2022/04/24 01:09:53;;;;;;;2.42;0.50;;;;;;;;;;4923445;29;20156;-66
2022/04/24 01:12:18;;;;;;;3.15;0.65;;;;;;;;;;4925294;29;20051;-68
2022/04/24 01:14:44;;;;;;;0.95;0.60;;;;;;;;;;4924649;29;20126;-67
2022/04/24 01:17:11;;;;;;;2.55;0.85;;;;;;;;;;4925001;29;20056;-68
2022/04/24 01:19:37;;;;;;;1.40;0.90;;;;;;;;;;4923023;29;20504;-68
2022/04/24 01:22:03;;;;;;;2.60;1.10;;;;;;;;;;4923279;29;20039;-71
2022/04/24 01:24:29;;;;;;;2.80;0.75;;;;;;;;;;4924087;29;20066;-68
2022/04/24 01:26:56;;;;;;;1.33;0.82;;;;;;;;;;4925959;29;20056;-69
2022/04/24 01:29:23;;;;;;;4.43;1.08;;;;;;;;;;4922902;29;20134;-67
2022/04/24 01:31:50;;;;;;;1.63;0.70;;;;;;;;;;4932999;29;20065;-69
2022/04/24 01:34:18;;;;;;;2.33;0.63;;;;;;;;;;4927256;29;20082;-68
2022/04/24 01:36:44;;;;;;;1.73;0.80;;;;;;;;;;4923617;29;20058;-69
2022/04/24 01:39:10;;;;;;;3.95;0.60;;;;;;;;;;4921887;29;20063;-69
2022/04/24 01:41:36;;;;;;;1.05;0.45;;;;;;;;;;4925010;29;20426;-67
2022/04/24 01:44:03;;;;;;;0.88;0.52;;;;;;;;;;4926806;29;20047;-65
2022/04/24 01:46:29;;;;;;;0.75;0.60;;;;;;;;;;4922042;29;20461;-67
2022/04/24 01:48:54;;;;;;;1.30;0.70;;;;;;;;;;4926121;29;20055;-67
2022/04/24 01:51:20;;;;;;;1.80;0.60;;;;;;;;;;4923267;29;20068;-69
2022/04/24 01:53:46;;;;;;;3.85;1.00;;;;;;;;;;4924647;29;20666;-68
2022/04/24 01:56:13;;;;;;;1.90;0.70;;;;;;;;;;4924640;29;20039;-67
2022/04/24 01:58:39;;;;;;;1.45;0.90;;;;;;;;;;4926153;29;20052;-66
2022/04/24 02:01:06;;;;;;;2.17;0.55;;;;;;;;;;4924816;29;20438;-66
2022/04/24 02:03:33;;;;;;;2.17;0.80;;;;;;;;;;4927032;29;20358;-65
2022/04/24 02:06:00;;;;;;;3.85;0.68;;;;;;;;;;4923510;29;20489;-65
2022/04/24 02:08:27;;;;;;;1.58;0.60;;;;;;;;;;4925612;29;20086;-66
2022/04/24 02:10:53;;;;;;;3.00;0.77;;;;;;;;;;4923845;29;20052;-67
2022/04/24 02:13:19;;;;;;;3.55;0.90;;;;;;;;;;4923009;29;20606;-68
2022/04/24 02:15:49;;;;;;;0.80;0.65;;;;;;;;;;4925918;29;20108;-67
2022/04/24 02:18:15;;;;;;;1.45;0.68;;;;;;;;;;4926588;29;20585;-68
2022/04/24 02:20:41;;;;;;;2.35;0.93;;;;;;;;;;4920791;29;20126;-67
2022/04/24 02:23:08;;;;;;;3.78;0.90;;;;;;;;;;4923551;29;20127;-66
2022/04/24 02:25:34;;;;;;;1.90;0.75;;;;;;;;;;4923498;29;20051;-67
2022/04/24 02:28:01;;;;;;;1.15;0.70;;;;;;;;;;4924698;29;20146;-68
2022/04/24 02:30:29;;;;;;;2.00;0.65;;;;;;;;;;4921703;29;20131;-68
2022/04/24 02:32:59;;;;;;;2.03;0.82;;;;;;;;;;4924377;29;20052;-67
2022/04/24 02:35:26;;;;;;;2.70;0.70;;;;;;;;;;4923680;29;20670;-68
2022/04/24 02:37:52;;;;;;;1.25;0.70;;;;;;;;;;4924685;29;20052;-70
2022/04/24 02:40:21;;;;;;;1.33;0.60;;;;;;;;;;4923502;29;20062;-66
2022/04/24 02:42:52;;;;;;;1.67;0.70;;;;;;;;;;4925848;29;20065;-68
2022/04/24 02:45:19;;;;;;;2.63;0.80;;;;;;;;;;4937171;28;20056;-70
2022/04/24 02:47:45;;;;;;;2.70;0.80;;;;;;;;;;4927487;29;20052;-67
2022/04/24 02:50:11;;;;;;;1.42;0.80;;;;;;;;;;4926672;29;20048;-67
2022/04/24 02:53:11;;;;;;;1.40;0.80;;;;;;;;;;4928802;29;20413;-66
2022/04/24 02:55:37;;;;;;;2.53;0.80;;;;;;;;;;4922292;29;20044;-68
2022/04/24 02:58:03;;;;;;;1.73;0.70;;;;;;;;;;4929782;29;20268;-69
2022/04/24 03:00:39;;;;;;;1.77;0.82;;;;;;;;;;4923196;29;20040;-71
2022/04/24 03:03:09;;;;;;;1.90;0.95;;;;;;;;;;4927259;29;20048;-68
2022/04/24 03:05:35;;;;;;;10.32;0.75;;;;;;;;;;4927551;29;20043;-67
2022/04/24 03:08:02;;;;;;;2.45;0.88;;;;;;;;;;4929616;29;20429;-68
2022/04/24 03:10:29;;;;;;;2.67;0.80;;;;;;;;;;4924979;29;20071;-67
2022/04/24 03:12:55;;;;;;;2.67;0.90;;;;;;;;;;4928579;29;20524;-67
2022/04/24 03:15:21;;;;;;;1.95;0.90;;;;;;;;;;4926658;29;20043;-68
2022/04/24 03:17:49;;;;;;;2.40;1.13;;;;;;;;;;4927974;29;20059;-68
2022/04/24 03:20:15;;;;;;;1.35;0.77;;;;;;;;;;4923424;29;20061;-67
2022/04/24 03:22:41;;;;;;;1.60;0.80;;;;;;;;;;4928387;29;20047;-68
2022/04/24 03:25:09;;;;;;;2.88;0.80;;;;;;;;;;4927579;29;20086;-68
2022/04/24 03:27:35;;;;;;;2.45;0.73;;;;;;;;;;4927273;29;20048;-68
2022/04/24 03:30:03;;;;;;;5.00;0.98;;;;;;;;;;4925907;29;20047;-67
2022/04/24 03:32:33;;;;;;;2.50;0.80;;;;;;;;;;4928898;29;20438;-66
2022/04/24 03:34:59;;;;;;;5.43;1.55;;;;;;;;;;4925107;29;20079;-69
2022/04/24 03:37:25;;;;;;;2.85;0.80;;;;;;;;;;4926358;29;20058;-67
2022/04/24 03:39:51;;;;;;;3.35;0.80;;;;;;;;;;4925083;29;20477;-67
2022/04/24 03:42:17;;;;;;;3.40;1.10;;;;;;;;;;4927553;29;20051;-67
2022/04/24 03:44:43;;;;;;;0.85;0.77;;;;;;;;;;4927855;29;20173;-67
2022/04/24 03:47:09;;;;;;;1.45;0.80;;;;;;;;;;4925539;29;20076;-69
2022/04/24 03:49:35;;;;;;;1.95;0.80;;;;;;;;;;4924904;29;20690;-67
2022/04/24 03:52:01;;;;;;;2.20;0.90;;;;;;;;;;4926716;29;20039;-69
2022/04/24 03:54:27;;;;;;;3.28;1.20;;;;;;;;;;4926776;29;20051;-68
2022/04/24 03:56:53;;;;;;;2.42;0.90;;;;;;;;;;4925559;29;20201;-68
2022/04/24 03:59:18;;;;;;;2.65;0.85;;;;;;;;;;4926328;29;20056;-69
2022/04/24 04:01:44;;;;;;;2.65;1.20;;;;;;;;;;4927874;29;20118;-67
2022/04/24 04:04:11;;;;;;;1.77;0.90;;;;;;;;;;4926784;29;20451;-67
2022/04/24 04:06:36;;;;;;;1.40;0.77;;;;;;;;;;4925060;29;20048;-69
2022/04/24 04:09:03;;;;;;;2.42;0.80;;;;;;;;;;4926023;29;20048;-65
2022/04/24 04:11:28;;;;;;;2.60;0.93;;;;;;;;;;4925081;29;20189;-66
2022/04/24 04:13:54;;;;;;;3.30;0.80;;;;;;;;;;4925777;29;20063;-66
2022/04/24 04:16:20;;;;;;;3.30;1.10;;;;;;;;;;4926119;29;20052;-67
2022/04/24 04:18:46;;;;;;;3.13;0.90;;;;;;;;;;4926331;29;20139;-66
2022/04/24 04:21:12;;;;;;;0.98;0.82;;;;;;;;;;4923042;29;20052;-67
2022/04/24 04:23:38;;;;;;;3.50;0.90;;;;;;;;;;4926168;29;20470;-68
2022/04/24 04:26:04;;;;;;;0.77;0.77;;;;;;;;;;4925390;29;20044;-67
2022/04/24 04:28:30;;;;;;;3.30;1.00;;;;;;;;;;4925183;29;20052;-68
2022/04/24 04:30:57;;;;;;;7.18;1.10;;;;;;;;;;4938856;28;20091;-67
2022/04/24 04:33:22;;;;;;;2.03;0.88;;;;;;;;;;4927177;29;20070;-69
2022/04/24 04:35:48;;;;;;;2.88;0.90;;;;;;;;;;4924054;29;20142;-68
2022/04/24 04:38:15;;;;;;;2.80;1.02;;;;;;;;;;4927737;29;20058;-67
2022/04/24 04:40:41;;;;;;;2.38;1.08;;;;;;;;;;4927150;29;20588;-69
2022/04/24 04:43:07;;;;;;;3.15;1.17;;;;;;;;;;4925348;29;20078;-67
2022/04/24 04:45:33;;;;;;;3.03;1.10;;;;;;;;;;4925294;29;20478;-66
2022/04/24 04:47:59;;;;;;;3.15;1.02;;;;;;;;;;4927198;29;20457;-66
2022/04/24 04:50:25;;;;;;;2.35;0.88;;;;;;;;;;4924494;29;20062;-67
2022/04/24 04:52:51;;;;;;;1.73;0.90;;;;;;;;;;4928008;28;20482;-67
2022/04/24 04:55:17;;;;;;;3.28;1.02;;;;;;;;;;4926491;29;20143;-66
2022/04/24 04:57:43;;;;;;;2.38;1.02;;;;;;;;;;4924686;29;20085;-67
2022/04/24 05:00:11;;;;;;;4.35;1.38;;;;;;;;;;4925079;29;20058;-67
2022/04/24 05:02:38;;;;;;;3.40;1.00;;;;;;;;;;4923472;29;20104;-68
2022/04/24 05:05:06;;;;;;;3.08;1.10;;;;;;;;;;4926045;29;20118;-67
2022/04/24 05:07:32;;;;;;;2.97;1.33;;;;;;;;;;4924015;29;20150;-69
2022/04/24 05:09:58;;;;;;;2.33;0.88;;;;;;;;;;4926283;29;20445;-71
2022/04/24 05:12:27;;;;;;;3.15;0.90;;;;;;;;;;4923950;29;20052;-66
2022/04/24 05:14:59;;;;;;;1.02;0.90;;;;;;;;;;4923025;29;20047;-68
2022/04/24 05:17:27;;;;;;;3.17;1.00;;;;;;;;;;4920233;29;20047;-68
2022/04/24 05:19:54;;;;;;;1.88;0.90;;;;;;;;;;4923612;29;20056;-68
2022/04/24 05:22:20;;;;;;;2.30;1.02;;;;;;;;;;4925677;29;20490;-66
2022/04/24 05:24:46;;;;;;;1.90;0.90;;;;;;;;;;4927588;28;20082;-68
2022/04/24 05:27:11;;;;;;;2.15;0.95;;;;;;;;;;4924721;29;20063;-68
2022/04/24 05:29:37;;;;;;;2.65;1.02;;;;;;;;;;4922375;29;20064;-67
2022/04/24 05:32:04;;;;;;;4.97;1.38;;;;;;;;;;4924890;29;20051;-67
2022/04/24 05:34:30;;;;;;;4.78;1.00;;;;;;;;;;4924013;29;20044;-68
2022/04/24 05:36:56;;;;;;;1.63;0.90;;;;;;;;;;4920197;29;20138;-66
2022/04/24 05:39:22;;;;;;;1.65;1.08;;;;;;;;;;4922183;29;20086;-67
2022/04/24 05:41:48;;;;;;;5.00;0.90;;;;;;;;;;4923762;29;20134;-67
2022/04/24 05:44:14;;;;;;;2.75;0.98;;;;;;;;;;4922997;29;20170;-67
2022/04/24 05:46:40;;;;;;;2.17;1.00;;;;;;;;;;4918089;29;20142;-69
2022/04/24 05:49:06;;;;;;;6.53;1.10;;;;;;;;;;4918629;29;20413;-66
2022/04/24 05:51:33;;;;;;;2.75;0.88;;;;;;;;;;4921986;29;20107;-68
2022/04/24 05:54:00;;;;;;;1.63;0.90;;;;;;;;;;4923157;29;20074;-69
2022/04/24 05:56:26;;;;;;;2.63;1.15;;;;;;;;;;4926413;29;20454;-66
2022/04/24 05:58:51;;;;;;;4.35;0.85;;;;;;;;;;4923996;29;20094;-67
2022/04/24 06:01:17;;;;;;;3.92;1.20;;;;;;;;;;4923734;29;20103;-68
2022/04/24 06:03:43;;;;;;;4.78;0.80;;;;;;;;;;4924386;29;20118;-67
2022/04/24 06:06:10;;;;;;;2.50;0.98;;;;;;;;;;4922980;29;20048;-66
2022/04/24 06:08:36;;;;;;;3.70;1.10;;;;;;;;;;4921516;29;20161;-67
2022/04/24 06:11:02;;;;;;;2.83;1.00;;;;;;;;;;4920418;29;20048;-68
2022/04/24 06:13:29;;;;;;;2.55;1.05;;;;;;;;;;4924987;29;20119;-69
2022/04/24 06:15:57;;;;;;;3.08;0.93;;;;;;;;;;4926088;29;20643;-67
2022/04/24 06:18:25;;;;;;;2.60;1.17;;;;;;;;;;4923395;29;20162;-67
2022/04/24 06:20:51;;;;;;;4.53;1.00;;;;;;;;;;4922944;29;20482;-67
2022/04/24 06:23:17;;;;;;;3.25;0.90;;;;;;;;;;4927328;29;20502;-68
2022/04/24 06:25:43;;;;;;;3.25;1.00;;;;;;;;;;4923093;29;20076;-67
2022/04/24 06:28:09;;;;;;;5.85;1.00;;;;;;;;;;4928803;29;20541;-68
2022/04/24 06:30:40;;;;;;;4.15;1.00;;;;;;;;;;4921854;29;20139;-67
2022/04/24 06:33:09;;;;;;;2.03;0.95;;;;;;;;;;4925445;29;20078;-69
2022/04/24 06:35:36;;;;;;;2.80;1.17;;;;;;;;;;4940244;29;20058;-67
2022/04/24 06:38:02;;;;;;;1.77;0.98;;;;;;;;;;4930485;29;20063;-67
2022/04/24 06:40:28;;;;;;;2.85;0.93;;;;;;;;;;4925273;29;20043;-68
2022/04/24 06:42:55;;;;;;;2.17;1.00;;;;;;;;;;4930246;29;20052;-68
2022/04/24 06:45:30;;;;;;;1.90;1.42;;;;;;;;;;4926386;28;20102;-68
2022/04/24 06:47:57;;;;;;;;;;;;;;;;;;4925972;29;20052;-68
2022/04/24 06:50:23;;;;;;;2.10;1.20;;;;;;;;;;4918887;29;20345;-69
2022/04/24 06:52:59;;;;;;;2.90;1.10;;;;;;;;;;4922839;29;20055;-72
2022/04/24 06:55:26;;;;;;;1.80;1.10;;;;;;;;;;4923889;29;20127;-66
2022/04/24 06:57:52;;;;;;;5.03;1.08;;;;;;;;;;4926451;29;20054;-67
2022/04/24 07:00:22;;;;;;;3.55;1.10;;;;;;;;;;4924518;29;20044;-65
2022/04/24 07:02:49;;;;;;;4.55;1.23;;;;;;;;;;4922041;29;20059;-66
2022/04/24 07:05:15;;;;;;;2.65;1.23;;;;;;;;;;4925068;29;20047;-67
2022/04/24 07:07:41;;;;;;;5.53;1.92;;;;;;;;;;4924884;29;20762;-67
2022/04/24 07:10:09;;;;;;;2.95;1.20;;;;;;;;;;4922728;29;20146;-67
2022/04/24 07:12:51;;;;;;;7.10;1.15;;;;;;;;;;4922861;29;20055;-66
2022/04/24 07:15:19;;;;;;;4.60;1.00;;;;;;;;;;4923689;29;20509;-66
2022/04/24 07:17:46;;;;;;;2.38;1.00;;;;;;;;;;4924947;29;20052;-65
2022/04/24 07:20:13;;;;;;;3.38;1.17;;;;;;;;;;4921894;29;20107;-62
2022/04/24 07:23:01;;;;;;;4.25;1.02;;;;;;;;;;4909202;29;21119;-64
2022/04/24 07:25:32;;;;;;;9.02;1.08;;;;;;;;;;4923023;29;20066;-66
2022/04/24 07:27:59;;;;;;;3.70;1.30;;;;;;;;;;4923268;29;20529;-65
2022/04/24 07:30:24;;;;;;;4.15;1.00;;;;;;;;;;4922401;29;20086;-62
2022/04/24 07:36:16;;;;;;;5.80;1.02;;;;;;;;;;4923796;29;20051;-64
2022/04/24 07:38:42;;;;;;;2.35;0.90;;;;;;;;;;4921166;29;20058;-63
2022/04/24 07:41:08;;;;;;;2.80;1.20;;;;;;;;;;4922884;29;20682;-62
2022/04/24 07:43:34;;;;;;;2.75;0.90;;;;;;;;;;4929626;29;20143;-62
2022/04/24 07:46:00;;;;;;;3.35;0.95;;;;;;;;;;4921259;29;20079;-64
2022/04/24 07:48:26;;;;;;;3.38;1.13;;;;;;;;;;4927052;29;20054;-62
2022/04/24 07:50:52;;;;;;;3.40;0.93;;;;;;;;;;4923373;29;20131;-61
2022/04/24 07:53:20;;;;;;;3.88;0.98;;;;;;;;;;4920907;29;20811;-63
2022/04/24 07:55:48;;;;;;;1.52;0.98;;;;;;;;;;4923094;29;20048;-62
2022/04/24 07:58:15;;;;;;;2.35;0.70;;;;;;;;;;4924730;29;20146;-62
2022/04/24 08:00:42;;;;;;;1.90;0.82;;;;;;;;;;4924743;29;20044;-63
2022/04/24 08:03:10;;;;;;;1.35;0.82;;;;;;;;;;4919355;29;20071;-62
2022/04/24 08:05:41;;;;;;;3.08;1.00;;;;;;;;;;4924685;29;20468;-63
2022/04/24 08:08:15;;;;;;;1.02;0.70;;;;;;;;;;4923763;29;20189;-64
2022/04/24 08:10:43;;;;;;;3.67;0.90;;;;;;;;;;4923720;29;21057;-64
2022/04/24 08:13:10;;;;;;;3.63;0.95;;;;;;;;;;4918950;29;20048;-66
2022/04/24 08:15:37;;;;;;;4.57;0.95;;;;;;;;;;4927806;29;20044;-64
2022/04/24 08:18:04;;;;;;;3.75;0.82;;;;;;;;;;4928363;29;20139;-63
2022/04/24 08:20:32;;;;;;;3.20;1.20;;;;;;;;;;4928096;29;20052;-65
2022/04/24 08:23:02;;;;;;;5.50;1.17;;;;;;;;;;4929344;29;20067;-65
2022/04/24 08:25:33;;;;;;;2.95;0.95;;;;;;;;;;4927845;29;20052;-65
2022/04/24 08:27:59;;;;;;;2.95;1.05;;;;;;;;;;4925791;29;20051;-64
2022/04/24 08:30:25;;;;;;;3.88;0.85;;;;;;;;;;4926339;29;20434;-64
2022/04/24 08:32:51;;;;;;;3.40;0.73;;;;;;;;;;4926968;29;20106;-65
2022/04/24 08:35:19;;;;;;;2.17;0.90;;;;;;;;;;4922526;29;20134;-66
2022/04/24 08:37:47;;;;;;;3.03;0.95;;;;;;;;;;4919066;29;20053;-65
2022/04/24 08:40:14;;;;;;;2.90;0.68;;;;;;;;;;4920114;29;20048;-63
2022/04/24 08:42:41;;;;;;;3.70;1.10;;;;;;;;;;4920787;29;20044;-62
2022/04/24 08:45:12;;;;;;;3.42;1.00;;;;;;;;;;4916406;29;20536;-67
2022/04/24 08:47:39;;;;;;;2.35;1.30;;;;;;;;;;4923078;29;20036;-64
2022/04/24 08:50:06;;;;;;;2.55;1.00;;;;;;;;;;4920701;29;20054;-64
2022/04/24 08:52:32;;;;;;;2.13;0.95;;;;;;;;;;4920201;29;20039;-64
2022/04/24 08:54:59;;;;;;;3.53;0.90;;;;;;;;;;4922212;29;20047;-63
2022/04/24 08:57:30;;;;;;;3.20;0.90;;;;;;;;;;4922081;29;20510;-62
2022/04/24 09:00:00;;;;;;;3.40;0.80;;;;;;;;;;4933857;28;20513;-64
2022/04/24 09:02:26;;;;;;;1.90;0.80;;;;;;;;;;4923087;29;20065;-63
2022/04/24 09:04:53;;;;;;;2.78;0.90;;;;;;;;;;4922157;29;20083;-62
2022/04/24 09:07:20;;;;;;;1.10;0.75;;;;;;;;;;4923213;29;20079;-64
2022/04/24 09:09:49;;;;;;;2.00;1.05;;;;;;;;;;4922683;29;21228;-66
2022/04/24 09:12:23;;;;;;;2.60;0.80;;;;;;;;;;4921143;29;20135;-63
2022/04/24 09:14:51;;;;;;;0.77;0.57;;;;;;;;;;4923235;29;20095;-63
2022/04/24 09:17:25;;;;;;;0.90;0.50;;;;;;;;;;4917884;29;20143;-65
2022/04/24 09:19:52;;;;;;;2.90;1.05;;;;;;;;;;4922595;29;20132;-61
2022/04/24 09:22:18;;;;;;;1.20;0.70;;;;;;;;;;4934459;29;20063;-61
2022/04/24 09:25:01;;;;;;;2.63;0.85;;;;;;;;;;4922939;29;20056;-60
2022/04/24 09:27:32;;;;;;;1.52;0.70;;;;;;;;;;4921759;29;20134;-64
2022/04/24 09:30:27;;;;;;;1.77;0.82;;;;;;;;;;4936460;28;20059;-62
2022/04/24 09:32:55;;;;;;;2.33;1.10;;;;;;;;;;4920797;29;20231;-66
2022/04/24 09:35:27;;;;;;;3.15;1.00;;;;;;;;;;4922072;28;20421;-62
2022/04/24 09:38:05;;;;;;;2.17;0.80;;;;;;;;;;4918071;29;20129;-60
2022/04/24 09:40:42;;;;;;;3.72;0.90;;;;;;;;;;4921766;29;20541;-61
2022/04/24 09:43:12;;;;;;;1.40;0.80;;;;;;;;;;4921718;29;20126;-62
2022/04/24 09:45:46;;;;;;;1.38;0.63;;;;;;;;;;4924179;29;20098;-60
2022/04/24 09:48:22;;;;;;;2.67;1.08;;;;;;;;;;4917655;29;20048;-61
2022/04/24 09:50:50;;;;;;;5.85;0.90;;;;;;;;;;4924354;29;20051;-68
2022/04/24 09:53:20;;;;;;;5.30;1.15;;;;;;;;;;4918824;29;20052;-64
2022/04/24 09:55:49;;;;;;;2.53;0.80;;;;;;;;;;4918841;29;20433;-64
2022/04/24 09:58:16;;;;;;;5.32;1.10;;;;;;;;;;4921382;29;20126;-68
2022/04/24 10:00:42;;;;;;;4.57;1.33;;;;;;;;;;4927984;29;20047;-67
2022/04/24 10:03:19;;;;;;;4.28;1.27;;;;;;;;;;4918394;29;20052;-68
2022/04/24 10:05:47;;;;;;;5.68;0.90;;;;;;;;;;4924746;29;20233;-69
2022/04/24 10:08:14;;;;;;;2.35;1.08;;;;;;;;;;4923533;29;20036;-68
2022/04/24 10:10:40;;;;;;;3.33;1.08;;;;;;;;;;4920815;29;20765;-65
2022/04/24 10:13:09;;;;;;;2.83;1.08;;;;;;;;;;4925928;29;20044;-68
2022/04/24 10:15:42;;;;;;;2.38;0.80;;;;;;;;;;4925087;29;20055;-64
2022/04/24 10:18:36;;;;;;;3.53;1.40;;;;;;;;;;4913265;29;20426;-64
2022/04/24 10:21:34;;;;;;;4.82;1.00;;;;;;;;;;4925606;29;20501;-66
2022/04/24 10:24:11;;;;;;;2.38;1.00;;;;;;;;;;4913789;29;20312;-69
2022/04/24 10:26:37;;;;;;;4.20;1.40;;;;;;;;;;4919854;29;20051;-65
2022/04/24 10:29:10;;;;;;;2.90;1.00;;;;;;;;;;4922343;29;20703;-68
2022/04/24 10:31:44;;;;;;;9.25;1.25;;;;;;;;;;4925961;29;20047;-65
2022/04/24 10:34:11;;;;;;;2.72;1.02;;;;;;;;;;4921701;29;20567;-65
2022/04/24 10:36:37;;;;;;;1.75;0.90;;;;;;;;;;4922338;29;20107;-68
2022/04/24 10:39:16;;;;;;;2.90;1.10;;;;;;;;;;4921790;29;20060;-66
2022/04/24 10:41:54;;;;;;;4.88;1.15;;;;;;;;;;4912217;29;20111;-68
2022/04/24 10:44:20;;;;;;;2.50;0.82;;;;;;;;;;4920845;29;20063;-65
2022/04/24 10:46:48;;;;;;;4.75;1.40;;;;;;;;;;4922229;29;20249;-68
2022/04/24 10:49:16;;;;;;;2.33;1.00;;;;;;;;;;4921104;29;20062;-65
2022/04/24 10:52:04;;;;;;;3.17;1.00;;;;;;;;;;4923390;29;20077;-68
2022/04/24 10:54:41;;;;;;;2.20;0.85;;;;;;;;;;4918039;29;20075;-66
2022/04/24 10:57:23;;;;;;;3.83;0.90;;;;;;;;;;4927982;29;20043;-68
2022/04/24 10:59:52;;;;;;;1.80;0.90;;;;;;;;;;4923369;29;20048;-67
2022/04/24 11:02:30;;;;;;;1.83;0.90;;;;;;;;;;4924047;29;20048;-61
2022/04/24 11:05:05;;;;;;;10.95;1.35;;;;;;;;;;4921380;29;20052;-69
2022/04/24 11:07:31;;;;;;;2.28;1.02;;;;;;;;;;4917028;29;20055;-70
2022/04/24 11:10:05;;;;;;;5.70;0.93;;;;;;;;;;4931447;29;20146;-68
2022/04/24 11:12:33;;;;;;;2.85;0.90;;;;;;;;;;4926668;29;20048;-69
2022/04/24 11:15:11;;;;;;;1.50;0.80;;;;;;;;;;4932724;29;20059;-69
2022/04/24 11:17:37;;;;;;;2.00;0.90;;;;;;;;;;4932508;29;20051;-72
2022/04/24 11:20:09;;;;;;;3.17;0.95;;;;;;;;;;4932981;29;20421;-69
2022/04/24 11:22:52;;;;;;;2.85;0.80;;;;;;;;;;4930083;29;20051;-70
2022/04/24 11:25:20;;;;;;;1.42;0.80;;;;;;;;;;4916013;29;20098;-71
2022/04/24 11:27:51;;;;;;;2.38;1.00;;;;;;;;;;4919486;29;20402;-70
2022/04/24 11:30:20;;;;;;;3.00;1.00;;;;;;;;;;4918229;29;20098;-68
2022/04/24 11:33:04;;;;;;;3.30;1.50;;;;;;;;;;4926373;29;20459;-68
2022/04/24 11:35:31;;;;;;;2.47;1.20;;;;;;;;;;4915069;29;20048;-71
2022/04/24 11:37:57;;;;;;;1.80;1.10;;;;;;;;;;4915313;29;20056;-70
2022/04/24 11:40:24;;;;;;;3.15;1.20;;;;;;;;;;4918053;29;20466;-68
2022/04/24 11:42:50;;;;;;;5.80;1.17;;;;;;;;;;4914561;29;20056;-68
2022/04/24 11:50:52;;;;;;;2.28;0.98;;;;;;;;;;4932200;29;20039;-69
2022/04/24 11:53:22;;;;;;;2.28;1.10;;;;;;;;;;4932053;29;20430;-68
2022/04/24 11:56:01;;;;;;;2.88;0.90;;;;;;;;;;4933512;29;20070;-68
2022/04/24 11:58:38;;;;;;;2.47;1.25;;;;;;;;;;4915887;29;20135;-68
2022/04/24 12:01:07;;;;;;;3.58;0.77;;;;;;;;;;4922720;29;20035;-69
2022/04/24 12:03:35;;;;;;;1.58;0.88;;;;;;;;;;4934911;29;20514;-70
2022/04/24 12:06:03;;;;;;;1.35;0.90;;;;;;;;;;4932163;29;20047;-68
2022/04/24 12:08:50;;;;;;;2.13;0.95;;;;;;;;;;4931336;29;20055;-69
2022/04/24 12:11:26;;;;;;;2.80;1.00;;;;;;;;;;4931656;29;20055;-68
2022/04/24 12:14:10;;;;;;;3.08;1.30;;;;;;;;;;4934861;29;20485;-69
2022/04/24 12:16:37;;;;;;;;;;;;;;;;;;4934472;29;20079;-72
2022/04/24 12:19:04;;;;;;;3.88;1.33;;;;;;;;;;4933305;29;19922;-69
2022/04/24 12:21:35;;;;;;;2.03;1.17;;;;;;;;;;4933296;29;20110;-69
2022/04/24 12:24:01;;;;;;;2.17;0.90;;;;;;;;;;4933241;29;20052;-69
2022/04/24 12:26:27;;;;;;;3.30;0.95;;;;;;;;;;4934962;29;20410;-70
2022/04/24 12:28:53;;;;;;;2.63;1.15;;;;;;;;;;4935220;29;20077;-70
2022/04/24 12:31:27;;;;;;;1.95;0.60;;;;;;;;;;4933103;29;20050;-70
2022/04/24 12:33:54;;;;;;;3.03;0.98;;;;;;;;;;4933966;29;20506;-69
2022/04/24 12:36:21;;;;;;;1.33;0.85;;;;;;;;;;4930459;29;20043;-69
2022/04/24 12:38:57;;;;;;;2.60;0.90;;;;;;;;;;4932963;29;20071;-68
2022/04/24 12:41:26;;;;;;;2.63;0.77;;;;;;;;;;4925415;29;20072;-69
2022/04/24 12:44:00;;;;;;;1.70;0.90;;;;;;;;;;4931114;29;20256;-70
2022/04/24 12:46:26;;;;;;;1.30;0.90;;;;;;;;;;4913792;29;20052;-69
2022/04/24 12:48:54;;;;;;;1.52;0.60;;;;;;;;;;4929978;29;20052;-66
2022/04/24 12:51:23;;;;;;;1.50;0.70;;;;;;;;;;4932373;29;20420;-69
2022/04/24 12:53:50;;;;;;;0.90;0.50;;;;;;;;;;4944514;29;20124;-69
2022/04/24 12:56:17;;;;;;;2.20;0.95;;;;;;;;;;4942843;29;20083;-68
2022/04/24 12:58:43;;;;;;;1.15;0.73;;;;;;;;;;4932285;29;20056;-68
2022/04/24 13:01:12;;;;;;;4.82;0.80;;;;;;;;;;4927545;29;20151;-69
2022/04/24 13:03:39;;;;;;;3.75;1.10;;;;;;;;;;4915290;29;20482;-68
2022/04/24 13:06:09;;;;;;;4.03;1.10;;;;;;;;;;4932392;29;20048;-67
2022/04/24 13:08:37;;;;;;;2.38;0.70;;;;;;;;;;4932744;29;20148;-68
2022/04/24 13:11:04;;;;;;;1.70;0.80;;;;;;;;;;4931319;29;20062;-69
2022/04/24 13:13:32;;;;;;;2.47;1.10;;;;;;;;;;4930674;29;20082;-70
2022/04/24 13:18:44;;;;;;;2.28;0.90;;;;;;;;;;4932124;29;20784;-69
2022/04/24 13:21:10;;;;;;;3.97;1.00;;;;;;;;;;4931637;29;20621;-68
2022/04/24 13:23:36;;;;;;;1.70;0.95;;;;;;;;;;4932358;29;20134;-71
2022/04/24 13:26:02;;;;;;;1.30;0.75;;;;;;;;;;4932604;29;20075;-68
2022/04/24 13:28:30;;;;;;;1.60;0.95;;;;;;;;;;4933841;29;22007;-68
2022/04/24 13:30:55;;;;;;;2.70;0.63;;;;;;;;;;4931404;29;20131;-70
2022/04/24 13:33:21;;;;;;;3.58;0.70;;;;;;;;;;4918906;29;20130;-68
2022/04/24 13:35:48;;;;;;;2.72;0.98;;;;;;;;;;4911748;29;20048;-69
2022/04/24 13:38:20;;;;;;;5.13;0.80;;;;;;;;;;4916483;29;20449;-69
2022/04/24 13:40:49;;;;;;;2.67;1.08;;;;;;;;;;4932492;29;20052;-68
2022/04/24 13:43:16;;;;;;;2.47;0.90;;;;;;;;;;4931533;29;20100;-70
2022/04/24 13:45:42;;;;;;;1.35;0.70;;;;;;;;;;4933566;29;20064;-69
2022/04/24 13:48:10;;;;;;;2.53;1.10;;;;;;;;;;4932656;29;20055;-70
2022/04/24 13:50:37;;;;;;;2.13;0.70;;;;;;;;;;4918059;29;20094;-68
2022/04/24 13:53:04;;;;;;;1.92;0.75;;;;;;;;;;4915128;29;20090;-70
2022/04/24 13:55:30;;;;;;;2.58;0.70;;;;;;;;;;4946249;29;20043;-69
2022/04/24 13:57:56;;;;;;;1.20;0.80;;;;;;;;;;4930102;29;20135;-69
2022/04/24 14:00:23;;;;;;;2.10;0.70;;;;;;;;;;4931987;29;20588;-68
2022/04/24 14:02:51;;;;;;;1.05;0.77;;;;;;;;;;4928477;29;20047;-69
2022/04/24 14:05:17;;;;;;;2.22;0.90;;;;;;;;;;4931831;29;20056;-68
2022/04/24 14:07:44;;;;;;;2.78;0.70;;;;;;;;;;4930138;29;20082;-70
2022/04/24 14:10:10;;;;;;;2.05;0.80;;;;;;;;;;4931054;29;20052;-69
2022/04/24 14:12:37;;;;;;;1.35;0.65;;;;;;;;;;4931441;29;20060;-69
2022/04/24 14:15:03;;;;;;;1.50;1.08;;;;;;;;;;4930905;29;20044;-69
2022/04/24 14:17:29;;;;;;;2.05;0.68;;;;;;;;;;4920487;29;20053;-69
2022/04/24 14:19:56;;;;;;;1.58;0.85;;;;;;;;;;4916864;29;20082;-66
2022/04/24 14:22:22;;;;;;;1.17;0.65;;;;;;;;;;4930180;29;20083;-70
2022/04/24 14:24:48;;;;;;;3.70;0.63;;;;;;;;;;4929535;29;20068;-69
2022/04/24 14:27:17;;;;;;;1.02;0.70;;;;;;;;;;4930324;29;20106;-70
2022/04/24 14:29:44;;;;;;;8.43;1.05;;;;;;;;;;4932697;29;20048;-71
2022/04/24 14:32:12;;;;;;;3.15;0.90;;;;;;;;;;4929452;29;20040;-71
2022/04/24 14:34:43;;;;;;;4.30;1.48;;;;;;;;;;4933112;29;20131;-69
2022/04/24 14:37:11;;;;;;;1.52;0.70;;;;;;;;;;4930601;29;20576;-69
2022/04/24 14:39:37;;;;;;;3.85;1.08;;;;;;;;;;4933027;29;20056;-69
2022/04/24 14:42:07;;;;;;;1.65;0.60;;;;;;;;;;4933739;29;20130;-70
2022/04/24 14:44:34;;;;;;;2.67;0.65;;;;;;;;;;4935450;29;20071;-71
2022/04/24 14:58:08;;;;;;;1.58;0.95;;;;;;;;;;4933560;29;20051;-69
2022/04/24 15:00:36;;;;;;;1.25;0.70;;;;;;;;;;4933365;29;20126;-67
2022/04/24 15:03:06;;;;;;;1.42;0.75;;;;;;;;;;4932018;29;20056;-74
2022/04/24 15:05:33;;;;;;;1.60;0.88;;;;;;;;;;4933955;29;20051;-70
2022/04/24 15:08:00;;;;;;;0.68;0.68;;;;;;;;;;4934813;29;20257;-70
2022/04/24 15:10:27;;;;;;;2.03;0.75;;;;;;;;;;4933105;29;20040;-71
2022/04/24 15:12:53;;;;;;;1.38;0.70;;;;;;;;;;4933476;29;20142;-70